• Join FlightAware (Why Join?)
  • Login
  • US Flag 
Gobble Gobble! 
01:00AM EST


 

Airport Tracker/Info


-or-


 

Live Flight TrackerFlight Track Log ✈ RPA3253 ✈ 30-Jul-2013 ✈ KCLT - KMSY

Flight Track Log - Related Links

Times and Time Zones

All times are in EDT time to prevent confusion due to time zone crossing. See the RPA3253 flight status page for this flight to view local times or setup timezone preferences in your user account.

Time Position Orientation Groundspeed Altitude Reporting Facility
EDT Latitude Longitude Course Direction KTS MPH feet Rate Location/Type
10:38PM 35.1892 -80.9508 192° South 162 186 1,600  Level Atlanta Center
10:39PM 35.1331 -80.9658 192° South 224 258 3,200 1,980 Climbing Atlanta Center
10:40PM 35.1186 -81.0553 259° West 283 326 5,900 2,520 Climbing Atlanta Center
10:41PM 35.1100 -81.1292 262° West 282 325 7,800 1,200 Climbing Atlanta Center
10:42PM 35.0956 -81.2211 259° West 282 325 8,200 1,380 Climbing Atlanta Center
10:43PM 35.0633 -81.3692 255° West 318 366 11,300 2,160 Climbing Atlanta Center
10:44PM 35.0303 -81.4794 250° West 342 394 13,600 2,160 Climbing Atlanta Center
10:45PM 34.9969 -81.5919 250° West 353 406 15,700 1,980 Climbing Atlanta Center
10:46PM 34.9656 -81.6917 249° West 358 412 17,600 1,800 Climbing Atlanta Center
10:47PM 34.9303 -81.8067 250° West 358 412 19,300 1,560 Climbing Atlanta Center
10:48PM 34.8714 -81.9122 236° Southwest 368 423 20,800 1,380 Climbing Atlanta Center
10:49PM 34.8067 -82.0275 236° Southwest 373 429 22,100 1,200 Climbing Atlanta Center
10:50PM 34.7439 -82.1403 236° Southwest 390 449 23,300 1,200 Climbing Atlanta Center
10:51PM 34.6808 -82.2503 235° Southwest 401 461 24,600 840 Climbing Atlanta Center
10:52PM 34.6197 -82.3578 235° Southwest 415 478 25,000 180 Climbing Atlanta Center
10:53PM 34.5564 -82.4675 235° Southwest 415 478 25,000  Level Atlanta Center
10:54PM 34.4889 -82.5847 235° Southwest 415 478 25,000 300 Level Atlanta Center
10:55PM 34.4194 -82.6992 234° Southwest 427 491 25,700 840 Climbing Atlanta Center
10:56PM 34.3517 -82.8133 234° Southwest 432 497 26,700 900 Climbing Atlanta Center
10:57PM 34.2839 -82.9275 234° Southwest 432 497 27,600 840 Climbing Atlanta Center
10:58PM 34.2139 -83.0492 235° Southwest 434 499 28,400 780 Climbing Atlanta Center
10:59PM 34.1378 -83.1831 236° Southwest 434 499 29,200 900 Climbing Atlanta Center
11:00PM 34.0697 -83.2989 235° Southwest 434 499 30,200 900 Climbing Atlanta Center
11:01PM 34.0014 -83.4200 236° Southwest 434 499 31,000 360 Climbing Atlanta Center
11:02PM 33.9311 -83.5381 234° Southwest 434 499 31,000 60 Level Atlanta Center
11:03PM 33.8606 -83.6561 234° Southwest 434 499 31,200 540 Climbing Atlanta Center
11:04PM 33.7878 -83.7764 234° Southwest 439 505 32,100 840 Climbing Atlanta Center
11:05PM 33.7189 -83.8939 235° Southwest 439 505 32,900 720 Climbing Atlanta Center
11:06PM 33.6544 -83.9989 234° Southwest 439 505 33,600 540 Climbing Atlanta Center
11:07PM 33.5856 -84.1186 235° Southwest 439 505 34,000 180 Climbing Atlanta Center
11:08PM 33.5164 -84.2306 233° Southwest 434 499 34,000  Level Atlanta Center
11:09PM 33.4453 -84.3500 235° Southwest 428 493 34,000  Level Atlanta Center
11:10PM 33.3678 -84.4817 235° Southwest 438 504 34,000 180 Level Atlanta Center
11:11PM 33.2961 -84.6006 234° Southwest 445 512 34,400 480 Climbing Atlanta Center
11:12PM 33.2225 -84.7217 234° Southwest 450 518 35,000 540 Climbing Atlanta Center
11:13PM 33.1486 -84.8428 234° Southwest 450 518 35,500 480 Climbing Atlanta Center
11:14PM 33.0769 -84.9586 234° Southwest 450 518 36,000 240 Climbing Atlanta Center
11:15PM 33.0008 -85.0817 234° Southwest 450 518 36,000 60 Level Atlanta Center
11:16PM 32.9372 -85.1822 233° Southwest 445 512 36,200 300 Climbing Atlanta Center
11:17PM 32.8611 -85.3025 233° Southwest 445 512 36,600 360 Climbing Atlanta Center
11:18PM 32.7889 -85.4225 234° Southwest 450 518 37,000 180 Climbing Atlanta Center
11:19PM 32.7142 -85.5422 233° Southwest 455 524 37,000  Level Atlanta Center
11:20PM 32.6378 -85.6619 233° Southwest 455 524 37,000  Level Atlanta Center
11:21PM 32.5631 -85.7836 234° Southwest 460 529 37,000  Level Atlanta Center
11:22PM 32.4733 -85.9222 233° Southwest 479 551 37,000 -540 Level Atlanta Center
11:23PM 32.3942 -86.0436 232° Southwest 479 551 36,000 -540 Descending Atlanta Center
11:24PM 32.3189 -86.1672 234° Southwest 479 551 36,000  Level Atlanta Center
11:25PM 32.2436 -86.2908 234° Southwest 474 545 36,000  Level Atlanta Center
11:26PM 32.1747 -86.4019 234° Southwest 475 547 36,000  Level Atlanta Center
11:27PM 32.0911 -86.5172 229° Southwest 468 539 36,000  Level Atlanta Center
11:28PM 32.0053 -86.6350 229° Southwest 474 545 36,000  Level Atlanta Center
11:29PM 31.9044 -86.7617 227° Southwest 479 551 36,000  Level Atlanta Center
11:30PM 31.8203 -86.8814 230° Southwest 479 551 36,000  Level Atlanta Center
11:31PM 31.7364 -86.9958 229° Southwest 479 551 36,000  Level Atlanta Center
11:32PM 31.6628 -87.1033 231° Southwest 479 551 36,000  Level Atlanta Center
11:34PM 31.5383 -87.2639 228° Southwest 472 543 36,000  Level Houston Center
11:35PM 31.4358 -87.4044 230° Southwest 473 544 36,000  Level Houston Center
11:36PM 31.3497 -87.5206 229° Southwest 472 543 36,000  Level Houston Center
11:37PM 31.2650 -87.6369 230° Southwest 470 541 36,000  Level Houston Center
11:38PM 31.1772 -87.7539 229° Southwest 477 549 36,000  Level Houston Center
11:39PM 31.0906 -87.8703 229° Southwest 477 549 36,000  Level Houston Center
11:40PM 31.0058 -87.9861 230° Southwest 474 545 36,000  Level Houston Center
11:41PM 30.9161 -88.1011 228° Southwest 480 552 36,000  Level Houston Center
11:42PM 30.8278 -88.2181 229° Southwest 481 554 36,000 -600 Level Houston Center
11:43PM 30.7408 -88.3347 229° Southwest 477 549 34,800 -1,800 Descending Houston Center
11:44PM 30.6725 -88.4750 241° Southwest 466 536 32,400 -2,400 Descending Houston Center
11:45PM 30.6117 -88.6114 243° Southwest 471 542 30,000 -2,340 Descending Houston Center
11:46PM 30.5519 -88.7464 243° Southwest 470 541 27,700 -2,340 Descending Houston Center
11:47PM 30.4939 -88.8786 243° Southwest 461 531 25,400 -2,220 Descending Houston Center
11:48PM 30.4414 -88.9939 242° Southwest 444 511 23,300 -2,100 Descending Houston Center
11:49PM 30.3900 -89.1181 244° Southwest 430 495 21,200 -2,100 Descending Houston Center
11:50PM 30.3458 -89.2406 247° West 415 478 19,100 -1,920 Descending Houston Center
11:51PM 30.3028 -89.3578 247° West 398 458 17,400 -1,980 Descending Houston Center
11:52PM 30.2672 -89.4572 248° West 385 443 15,800 -2,100 Descending Houston Center
11:52PM 30.2367 -89.5358 246° West 385 443 14,400 -1,800 Descending Houston Center
11:53PM 30.2178 -89.5881 247° West 387 445 13,500 -1,800 Descending Houston Center
11:54PM 30.1944 -89.7058 257° West 372 428 11,600 -1,740 Descending Houston Center
11:55PM 30.1728 -89.8231 258° West 368 423 10,000 -1,320 Descending Houston Center
11:56PM 30.1544 -89.9242 258° West 322 371 9,000 -1,740 Descending Houston Center
11:57PM 30.1375 -90.0175 258° West 301 346 6,500 -2,520 Descending Houston Center
11:58PM 30.1211 -90.1064 258° West 292 336 4,000 -2,160 Descending Houston Center
11:59PM 30.1067 -90.1886 259° West 278 320 2,200 -1,200 Descending Houston Center
12:00AM 30.0694 -90.2242 220° Southwest 214 246 1,600 -840 Descending Houston Center
12:01AM 30.0325 -90.2375 197° South 167 192 600 -600 Descending Houston Center
12:02AM 29.9908 -90.2506 195° South 155 178 400 -240 Descending Houston Center